createdAt,value
2019-05-13T00:01:47.586Z,3.92
2019-05-13T00:04:14.660Z,3.40
2019-05-13T00:06:53.164Z,4.08
2019-05-13T00:09:10.186Z,3.92
2019-05-13T00:11:36.982Z,3.87
2019-05-13T00:14:04.387Z,3.67
2019-05-13T00:16:33.605Z,5.58
2019-05-13T00:19:00.283Z,3.35
2019-05-13T00:21:27.146Z,6.40
2019-05-13T00:23:53.985Z,4.47
2019-05-13T00:26:20.641Z,7.33
2019-05-13T00:28:49.463Z,3.12
2019-05-13T00:31:16.383Z,4.95
2019-05-13T00:33:44.447Z,4.25
2019-05-13T00:36:11.439Z,4.25
2019-05-13T00:38:38.286Z,4.70
2019-05-13T00:41:04.969Z,3.50
2019-05-13T00:43:33.858Z,3.30
2019-05-13T00:46:01.101Z,7.25
2019-05-13T00:48:29.742Z,4.60
2019-05-13T00:50:55.992Z,4.47
2019-05-13T00:53:23.759Z,3.95
2019-05-13T00:55:50.739Z,6.28
2019-05-13T00:58:19.545Z,7.10
2019-05-13T01:00:46.468Z,7.50
2019-05-13T01:03:14.064Z,4.37
2019-05-13T01:05:41.252Z,4.65
2019-05-13T01:08:08.068Z,3.92
2019-05-13T01:10:35.029Z,7.25
2019-05-13T01:13:04.311Z,4.60
2019-05-13T01:15:30.729Z,3.83
2019-05-13T01:17:57.301Z,5.67
2019-05-13T01:20:23.973Z,4.87
2019-05-13T01:22:50.543Z,8.10
2019-05-13T01:25:17.266Z,6.20
2019-05-13T01:27:44.281Z,4.40
2019-05-13T01:30:13.363Z,8.08
2019-05-13T01:32:40.496Z,4.97
2019-05-13T01:35:07.371Z,4.80
2019-05-13T01:37:42.275Z,4.08
2019-05-13T01:40:05.360Z,5.15
2019-05-13T01:42:33.667Z,9.63
2019-05-13T01:45:00.489Z,3.90
2019-05-13T01:47:28.546Z,4.03
2019-05-13T01:49:55.209Z,7.42
2019-05-13T01:52:23.796Z,4.17
2019-05-13T01:54:54.323Z,4.28
2019-05-13T01:57:23.666Z,7.78
2019-05-13T01:59:50.273Z,5.95
2019-05-13T02:02:16.857Z,5.17
2019-05-13T02:04:44.044Z,6.50
2019-05-13T02:07:11.182Z,5.28
2019-05-13T02:09:38.468Z,6.72
2019-05-13T02:12:05.247Z,5.35
2019-05-13T02:14:34.033Z,7.00
2019-05-13T02:17:00.708Z,5.42
2019-05-13T02:19:27.692Z,5.92
2019-05-13T02:21:54.425Z,6.75
2019-05-13T02:24:23.529Z,4.12
2019-05-13T02:26:49.570Z,8.18
2019-05-13T02:29:16.268Z,6.62
2019-05-13T02:31:51.134Z,6.75
2019-05-13T02:34:13.635Z,7.80
2019-05-13T02:36:43.623Z,8.88
2019-05-13T02:39:08.718Z,5.70
2019-05-13T02:41:35.602Z,5.58
2019-05-13T02:44:03.867Z,5.05
2019-05-13T02:46:33.758Z,7.58
2019-05-13T02:49:02.944Z,4.75
2019-05-13T02:51:28.606Z,9.98
2019-05-13T02:53:55.454Z,9.13
2019-05-13T02:56:22.769Z,5.20
2019-05-13T02:58:52.419Z,6.92
2019-05-13T03:01:17.970Z,7.78
2019-05-13T03:03:44.653Z,8.48
2019-05-13T03:06:13.331Z,5.28
2019-05-13T03:08:49.145Z,8.15
2019-05-13T03:11:08.526Z,7.05
2019-05-13T03:13:35.288Z,8.45
2019-05-13T03:16:16.332Z,8.83
2019-05-13T03:18:43.878Z,5.28
2019-05-13T03:21:12.748Z,8.18
2019-05-13T03:23:43.600Z,8.43
2019-05-13T03:26:08.458Z,6.90
2019-05-13T03:28:35.401Z,8.08
2019-05-13T03:31:06.742Z,6.40
2019-05-13T03:33:35.844Z,6.95
2019-05-13T03:36:05.621Z,7.35
2019-05-13T03:38:29.026Z,6.95
2019-05-13T03:40:57.221Z,6.58
2019-05-13T03:43:25.079Z,9.10
2019-05-13T03:45:54.159Z,7.35
2019-05-13T03:48:23.601Z,8.90
2019-05-13T03:50:53.040Z,9.33
2019-05-13T03:53:18.267Z,8.98
2019-05-13T03:55:47.994Z,8.60
2019-05-13T03:58:14.668Z,8.88
2019-05-13T04:00:42.856Z,9.18
2019-05-13T04:03:13.204Z,11.00
2019-05-13T04:05:38.335Z,8.48
2019-05-13T04:08:06.568Z,20.27
2019-05-13T04:10:33.658Z,11.38
2019-05-13T04:13:03.897Z,8.25
2019-05-13T04:15:31.836Z,6.83
2019-05-13T04:17:58.166Z,10.03
2019-05-13T04:20:25.232Z,9.73
2019-05-13T04:22:52.993Z,11.28
2019-05-13T04:25:22.849Z,14.20
2019-05-13T04:27:52.223Z,9.85
2019-05-13T04:30:17.188Z,10.05
2019-05-13T04:32:44.367Z,10.08
2019-05-13T04:35:12.411Z,12.15
2019-05-13T04:37:38.998Z,9.93
2019-05-13T04:40:06.871Z,8.90
2019-05-13T04:42:33.714Z,9.85
2019-05-13T04:45:02.982Z,11.10
2019-05-13T04:47:29.090Z,10.20
2019-05-13T04:49:55.807Z,10.45
2019-05-13T04:52:22.873Z,10.08
2019-05-13T04:54:52.687Z,7.78
2019-05-13T04:57:18.203Z,12.70
2019-05-13T04:59:44.865Z,14.40
2019-05-13T05:02:36.533Z,10.32
2019-05-13T05:05:03.375Z,9.20
2019-05-13T05:07:42.001Z,11.78
2019-05-13T05:10:37.373Z,10.00
2019-05-13T05:13:35.048Z,12.70
2019-05-13T05:16:22.117Z,12.58
2019-05-13T05:18:52.830Z,10.05
2019-05-13T05:21:41.761Z,13.80
2019-05-13T05:24:18.009Z,13.15
2019-05-13T05:27:12.567Z,9.95
2019-05-13T05:30:15.738Z,19.73
2019-05-13T05:32:46.131Z,13.65
2019-05-13T05:35:45.739Z,12.35
2019-05-13T05:38:18.767Z,11.70
2019-05-13T05:40:47.008Z,8.68
2019-05-13T05:43:15.881Z,13.25
2019-05-13T05:45:42.671Z,10.05
2019-05-13T05:48:14.145Z,9.63
2019-05-13T05:50:43.881Z,10.90
2019-05-13T05:53:12.490Z,11.20
2019-05-13T05:55:41.211Z,7.78
2019-05-13T05:58:08.643Z,7.83
2019-05-13T06:00:41.433Z,8.75
2019-05-13T06:03:06.043Z,10.95
2019-05-13T06:05:34.266Z,9.03
2019-05-13T06:08:01.998Z,8.20
2019-05-13T06:10:42.625Z,7.70
2019-05-13T06:13:01.695Z,9.68
2019-05-13T06:15:31.344Z,12.30
2019-05-13T06:17:58.903Z,10.30
2019-05-13T06:20:25.522Z,8.55
2019-05-13T06:22:52.371Z,9.50
2019-05-13T06:25:23.007Z,10.70
2019-05-13T06:27:47.459Z,9.33
2019-05-13T06:30:14.614Z,10.85
2019-05-13T06:32:41.990Z,7.90
2019-05-13T06:35:11.309Z,10.82
2019-05-13T06:37:37.726Z,8.73
2019-05-13T06:40:05.801Z,8.30
2019-05-13T06:42:32.614Z,8.00
2019-05-13T06:45:01.725Z,10.82
2019-05-13T06:47:27.452Z,10.95
2019-05-13T06:49:54.097Z,7.08
2019-05-13T06:52:21.247Z,5.40
2019-05-13T06:54:47.962Z,9.38
2019-05-13T06:57:14.507Z,11.38
2019-05-13T06:59:42.004Z,10.38
2019-05-13T07:02:12.217Z,4.78
2019-05-13T07:04:37.190Z,10.10
2019-05-13T07:07:12.766Z,8.43
2019-05-13T07:09:32.692Z,8.08
2019-05-13T07:12:02.524Z,7.20
2019-05-13T07:14:29.028Z,10.05
2019-05-13T07:16:55.738Z,7.58
2019-05-13T07:19:24.259Z,6.72
2019-05-13T07:21:52.088Z,8.50
2019-05-13T07:24:21.251Z,8.30
2019-05-13T07:26:49.500Z,8.15
2019-05-13T07:29:16.803Z,6.78
2019-05-13T07:31:44.585Z,9.83
2019-05-13T07:34:11.960Z,9.88
2019-05-13T07:36:41.849Z,9.00
2019-05-13T07:39:08.442Z,9.85
2019-05-13T07:41:39.481Z,7.62
2019-05-13T07:44:04.176Z,8.03
2019-05-13T07:46:32.289Z,7.28
2019-05-13T07:49:02.330Z,7.40
2019-05-13T07:51:31.415Z,7.40
2019-05-13T07:53:57.670Z,10.43
2019-05-13T07:56:24.553Z,6.65
2019-05-13T07:58:57.844Z,5.55
2019-05-13T08:01:24.492Z,5.53
2019-05-13T08:03:51.796Z,4.50
2019-05-13T08:06:18.784Z,8.43
2019-05-13T08:09:12.999Z,5.85
2019-05-13T08:11:56.081Z,7.55
2019-05-13T08:14:09.083Z,7.42
2019-05-13T08:16:38.043Z,6.90
2019-05-13T08:19:04.856Z,6.35
2019-05-13T08:21:32.374Z,8.20
2019-05-13T08:24:02.616Z,9.95
2019-05-13T08:26:29.237Z,4.90
2019-05-13T08:29:01.754Z,6.30
2019-05-13T08:31:24.963Z,5.75
2019-05-13T08:34:02.200Z,10.45
2019-05-13T08:36:28.280Z,3.98
2019-05-13T08:38:54.832Z,4.85
2019-05-13T08:41:23.483Z,5.62
2019-05-13T08:43:52.197Z,5.22
2019-05-13T08:46:21.674Z,6.87
2019-05-13T08:48:47.855Z,3.95
2019-05-13T08:51:14.458Z,2.62
2019-05-13T08:53:42.496Z,4.00
2019-05-13T08:56:09.343Z,3.70
2019-05-13T08:58:35.922Z,3.22
2019-05-13T09:01:02.643Z,4.00
2019-05-13T09:03:32.300Z,6.03
2019-05-13T09:05:57.770Z,3.27
2019-05-13T09:08:24.846Z,6.15
2019-05-13T09:10:53.184Z,4.95
2019-05-13T09:13:22.365Z,4.12
2019-05-13T09:15:51.469Z,3.33
2019-05-13T09:18:17.517Z,5.30
2019-05-13T09:20:44.015Z,3.75
2019-05-13T09:23:11.399Z,4.62
2019-05-13T09:25:38.070Z,5.92
2019-05-13T09:28:04.758Z,2.90
2019-05-13T09:30:32.272Z,4.80
2019-05-13T09:32:58.767Z,5.17
2019-05-13T09:35:25.330Z,2.92
2019-05-13T09:37:51.984Z,2.80
2019-05-13T09:40:18.503Z,4.30
2019-05-13T09:42:51.608Z,4.08
2019-05-13T09:45:14.430Z,3.50
2019-05-13T09:47:41.824Z,6.03
2019-05-13T09:50:27.189Z,3.42
2019-05-13T09:52:39.733Z,1.55
2019-05-13T09:55:22.772Z,4.10
2019-05-13T09:57:35.442Z,4.85
2019-05-13T10:00:05.497Z,2.05
2019-05-13T10:02:32.282Z,2.95
2019-05-13T10:05:02.403Z,3.25
2019-05-13T10:07:31.885Z,3.37
2019-05-13T10:10:01.232Z,3.92
2019-05-13T10:12:27.453Z,3.60
2019-05-13T10:14:54.062Z,2.12
2019-05-13T10:17:22.110Z,2.20
2019-05-13T10:19:49.196Z,3.47
2019-05-13T10:22:16.243Z,2.58
2019-05-13T10:24:43.916Z,3.85
2019-05-13T10:27:12.260Z,3.47
2019-05-13T10:29:42.166Z,5.03
2019-05-13T10:32:08.166Z,3.08
2019-05-13T10:34:35.481Z,4.50
2019-05-13T10:37:03.701Z,1.98
2019-05-13T10:39:30.746Z,4.95
2019-05-13T10:41:57.497Z,2.80
2019-05-13T10:44:24.893Z,4.35
2019-05-13T10:46:52.250Z,2.30
2019-05-13T10:49:22.034Z,4.60
2019-05-13T10:51:47.776Z,3.75
2019-05-13T10:54:14.357Z,3.42
2019-05-13T10:56:43.019Z,3.05
2019-05-13T10:59:12.352Z,3.08
2019-05-13T11:01:37.582Z,2.55
2019-05-13T11:04:12.653Z,3.72
2019-05-13T11:06:35.595Z,3.60
2019-05-13T11:09:06.189Z,3.52
2019-05-13T11:11:34.784Z,2.08
2019-05-13T11:14:10.185Z,4.17
2019-05-13T11:16:30.028Z,5.47
2019-05-13T11:18:58.614Z,3.65
2019-05-13T11:21:25.048Z,4.35
2019-05-13T11:23:52.285Z,2.20
2019-05-13T11:26:21.473Z,3.20
2019-05-13T11:28:47.844Z,2.95
2019-05-13T11:31:14.577Z,3.25
2019-05-13T11:33:42.494Z,4.80
2019-05-13T11:36:11.981Z,3.47
2019-05-13T11:38:39.287Z,3.95
2019-05-13T11:41:06.058Z,2.83
2019-05-13T11:43:34.001Z,3.83
2019-05-13T11:46:02.318Z,3.12
2019-05-13T11:48:31.405Z,3.55
2019-05-13T11:50:58.084Z,3.47
2019-05-13T11:53:32.724Z,4.75
2019-05-13T11:55:54.982Z,2.80
2019-05-13T11:58:22.470Z,2.37
2019-05-13T12:00:53.374Z,4.05
2019-05-13T12:05:48.560Z,4.35
2019-05-13T12:08:15.447Z,4.83
2019-05-13T12:10:43.949Z,4.10
2019-05-13T12:13:12.517Z,4.85
2019-05-13T12:15:46.796Z,3.87
2019-05-13T12:18:07.574Z,5.30
2019-05-13T12:20:34.304Z,5.50
2019-05-13T12:23:03.415Z,4.92
2019-05-13T12:25:33.339Z,4.22
2019-05-13T12:27:58.197Z,4.80
2019-05-13T12:30:24.902Z,5.50
2019-05-13T12:32:53.002Z,3.40
2019-05-13T12:35:22.795Z,3.35
2019-05-13T12:37:48.609Z,6.15
2019-05-13T12:40:15.994Z,4.40
2019-05-13T12:42:46.867Z,4.05
2019-05-13T12:45:14.426Z,4.80
2019-05-13T12:47:43.289Z,4.00
2019-05-13T12:50:13.305Z,6.17
2019-05-13T12:52:38.684Z,3.62
2019-05-13T12:55:05.656Z,4.30
2019-05-13T12:57:32.676Z,6.05
2019-05-13T13:00:02.224Z,3.47
2019-05-13T13:02:28.363Z,3.70
2019-05-13T13:05:12.980Z,3.67
2019-05-13T13:07:23.720Z,3.40
2019-05-13T13:09:53.482Z,3.90
2019-05-13T13:12:26.311Z,4.47
2019-05-13T13:14:54.118Z,5.05
2019-05-13T13:17:24.143Z,4.90
2019-05-13T13:19:54.842Z,5.50
2019-05-13T13:22:24.578Z,3.95
2019-05-13T13:24:55.690Z,6.50
2019-05-13T13:29:46.181Z,2.75
2019-05-13T13:34:44.108Z,4.22
2019-05-13T13:37:10.426Z,6.03
2019-05-13T13:39:37.874Z,4.05
2019-05-13T13:42:05.943Z,4.25
2019-05-13T13:44:35.079Z,4.40
2019-05-13T13:47:01.967Z,3.47
2019-05-13T13:49:28.936Z,4.00
2019-05-13T13:51:55.752Z,4.45
2019-05-13T13:54:23.730Z,3.72
2019-05-13T13:56:55.824Z,6.87
2019-05-13T13:59:23.402Z,3.08
2019-05-13T14:01:47.885Z,4.08
2019-05-13T14:04:16.540Z,5.83
2019-05-13T14:07:09.428Z,7.65
2019-05-13T14:07:12.890Z,4.05
2019-05-13T14:09:12.814Z,4.58
2019-05-13T14:11:41.940Z,4.47
2019-05-13T14:14:08.302Z,4.17
2019-05-13T14:16:35.598Z,3.70
2019-05-13T14:19:03.569Z,4.75
2019-05-13T14:21:32.389Z,8.80
2019-05-13T14:23:58.784Z,6.17
2019-05-13T14:26:25.911Z,5.08
2019-05-13T14:28:54.075Z,7.50
2019-05-13T14:31:21.496Z,5.62
2019-05-13T14:33:48.511Z,5.22
2019-05-13T14:36:15.548Z,3.30
2019-05-13T14:38:42.586Z,4.78
2019-05-13T14:41:12.396Z,4.95
2019-05-13T14:43:38.418Z,3.58
2019-05-13T14:46:12.598Z,5.72
2019-05-13T14:48:40.168Z,4.08
2019-05-13T14:51:08.884Z,6.00
2019-05-13T14:53:36.136Z,4.72
2019-05-13T14:56:04.317Z,4.17
2019-05-13T14:58:32.547Z,5.60
2019-05-13T15:01:14.298Z,4.03
2019-05-13T15:03:29.070Z,5.75
2019-05-13T15:05:55.971Z,4.53
2019-05-13T15:08:25.916Z,4.33
2019-05-13T15:10:54.904Z,5.00
2019-05-13T15:13:22.037Z,4.62
2019-05-13T15:15:51.501Z,3.75
2019-05-13T15:18:17.892Z,4.03
2019-05-13T15:20:44.842Z,8.45
2019-05-13T15:23:12.633Z,7.28
2019-05-13T15:25:45.833Z,6.15
2019-05-13T15:28:15.473Z,6.90
2019-05-13T15:30:44.629Z,6.60
2019-05-13T15:33:12.247Z,5.12
2019-05-13T15:35:41.986Z,5.10
2019-05-13T15:38:12.498Z,4.12
2019-05-13T15:40:41.469Z,5.37
2019-05-13T15:43:08.804Z,5.62
2019-05-13T15:45:35.918Z,4.87
2019-05-13T15:48:02.917Z,4.67
2019-05-13T15:50:31.972Z,7.00
2019-05-13T15:52:59.376Z,6.17
2019-05-13T15:55:26.302Z,6.92
2019-05-13T15:57:53.498Z,5.12
2019-05-13T16:00:21.986Z,5.42
2019-05-13T16:02:52.272Z,5.95
2019-05-13T16:05:20.027Z,5.13
2019-05-13T16:07:51.604Z,6.65
2019-05-13T16:10:21.136Z,6.50
2019-05-13T16:13:02.467Z,5.03
2019-05-13T16:15:32.077Z,5.60
2019-05-13T16:17:59.738Z,9.28
2019-05-13T16:20:32.207Z,4.83
2019-05-13T16:23:02.299Z,7.67
2019-05-13T16:25:45.306Z,8.20
2019-05-13T16:28:14.567Z,6.92
2019-05-13T16:30:43.406Z,3.95
2019-05-13T16:33:12.161Z,5.05
2019-05-13T16:35:42.265Z,5.97
2019-05-13T16:38:11.153Z,5.00
2019-05-13T16:40:43.872Z,5.90
2019-05-13T16:43:14.608Z,4.75
2019-05-13T16:45:44.727Z,4.67
2019-05-13T16:48:14.822Z,4.60
2019-05-13T16:50:42.580Z,6.25
2019-05-13T16:53:11.693Z,6.47
2019-05-13T16:55:41.694Z,6.67
2019-05-13T16:58:12.403Z,5.05
2019-05-13T17:00:42.459Z,7.00
2019-05-13T17:03:11.518Z,6.90
2019-05-13T17:05:38.891Z,6.62
2019-05-13T17:08:06.219Z,5.30
2019-05-13T17:10:36.513Z,4.83
2019-05-13T17:13:03.157Z,5.28
2019-05-13T17:15:31.187Z,6.22
2019-05-13T17:18:09.328Z,3.17
2019-05-13T17:20:26.718Z,7.50
2019-05-13T17:22:53.651Z,3.90
2019-05-13T17:25:20.796Z,4.47
2019-05-13T17:27:47.786Z,4.03
2019-05-13T17:30:15.672Z,3.65
2019-05-13T17:32:42.629Z,4.45
2019-05-13T17:35:11.646Z,2.90
2019-05-13T17:37:39.012Z,3.70
2019-05-13T17:40:08.580Z,3.95
2019-05-13T17:42:35.962Z,4.20
2019-05-13T17:45:05.963Z,4.72
2019-05-13T17:47:32.873Z,3.60
2019-05-13T17:50:01.047Z,4.00
2019-05-13T17:52:28.212Z,4.33
2019-05-13T17:54:55.275Z,4.30
2019-05-13T17:57:21.943Z,2.37
2019-05-13T17:59:48.881Z,4.62
2019-05-13T18:02:15.709Z,6.83
2019-05-13T18:04:42.987Z,2.55
2019-05-13T18:07:11.993Z,5.58
2019-05-13T18:09:38.770Z,2.17
2019-05-13T18:12:05.722Z,2.72
2019-05-13T18:14:32.971Z,3.00
2019-05-13T18:17:02.109Z,3.72
2019-05-13T18:19:28.524Z,2.08
2019-05-13T18:21:55.637Z,4.53
2019-05-13T18:24:23.063Z,1.80
2019-05-13T18:26:51.949Z,3.25
2019-05-13T18:29:22.503Z,2.67
2019-05-13T18:31:49.020Z,2.33
2019-05-13T18:34:16.386Z,1.90
2019-05-13T18:36:43.380Z,3.45
2019-05-13T18:39:12.335Z,3.35
2019-05-13T18:41:41.252Z,3.37
2019-05-13T18:44:08.974Z,2.45
2019-05-13T18:46:36.147Z,6.75
2019-05-13T18:49:02.952Z,3.77
2019-05-13T18:51:31.588Z,1.55
2019-05-13T18:53:58.547Z,2.72
2019-05-13T18:56:25.514Z,4.15
2019-05-13T18:58:52.165Z,4.20
2019-05-13T19:01:21.422Z,3.40
2019-05-13T19:03:48.005Z,3.47
2019-05-13T19:06:15.109Z,2.65
2019-05-13T19:08:42.193Z,2.98
2019-05-13T19:11:11.943Z,3.83
2019-05-13T19:13:41.465Z,3.75
2019-05-13T19:16:08.027Z,3.47
2019-05-13T19:18:35.084Z,4.00
2019-05-13T19:21:02.171Z,4.35
2019-05-13T19:23:31.334Z,3.83
2019-05-13T19:25:58.156Z,4.40
2019-05-13T19:28:24.718Z,3.83
2019-05-13T19:30:51.727Z,3.67
2019-05-13T19:33:21.903Z,2.52
2019-05-13T19:35:48.304Z,3.83
2019-05-13T19:38:15.131Z,2.90
2019-05-13T19:40:42.175Z,3.95
2019-05-13T19:43:11.592Z,3.80
2019-05-13T19:45:38.553Z,3.77
2019-05-13T19:48:05.400Z,2.72
2019-05-13T19:50:32.209Z,3.77
2019-05-13T19:53:01.181Z,3.58
2019-05-13T19:55:28.369Z,4.35
2019-05-13T19:57:55.189Z,5.28
2019-05-13T20:00:22.121Z,3.83
2019-05-13T20:02:48.657Z,6.40
2019-05-13T20:05:15.531Z,5.92
2019-05-13T20:07:43.654Z,3.15
2019-05-13T20:10:11.913Z,5.53
2019-05-13T20:12:38.750Z,5.03
2019-05-13T20:15:06.148Z,4.72
2019-05-13T20:17:32.865Z,4.08
2019-05-13T20:20:01.851Z,4.60
2019-05-13T20:22:28.434Z,5.50
2019-05-13T20:24:55.301Z,5.30
2019-05-13T20:27:22.241Z,3.60
2019-05-13T20:29:51.809Z,3.70
2019-05-13T20:32:18.426Z,8.43
2019-05-13T20:34:45.161Z,6.67
2019-05-13T20:37:12.536Z,5.22
2019-05-13T20:39:39.607Z,7.10
2019-05-13T20:42:06.643Z,5.78
2019-05-13T20:44:33.443Z,3.98
2019-05-13T20:47:01.624Z,7.37
2019-05-13T20:49:28.602Z,7.25
2019-05-13T20:51:55.134Z,3.92
2019-05-13T20:54:22.008Z,4.20
2019-05-13T20:56:51.637Z,4.55
2019-05-13T20:59:17.770Z,4.40
2019-05-13T21:01:44.410Z,3.52
2019-05-13T21:04:12.355Z,4.55
2019-05-13T21:06:39.325Z,4.47
2019-05-13T21:09:06.545Z,3.60
2019-05-13T21:11:33.450Z,5.60
2019-05-13T21:14:01.190Z,3.80
2019-05-13T21:16:29.284Z,3.42
2019-05-13T21:18:56.088Z,4.25
2019-05-13T21:21:23.763Z,6.40
2019-05-13T21:23:52.207Z,4.60
2019-05-13T21:26:18.690Z,4.35
2019-05-13T21:28:45.419Z,4.42
2019-05-13T21:31:12.286Z,4.12
2019-05-13T21:33:38.893Z,5.92
2019-05-13T21:36:05.533Z,2.72
2019-05-13T21:38:32.573Z,6.42
2019-05-13T21:40:59.546Z,4.50
2019-05-13T21:43:26.167Z,3.62
2019-05-13T21:45:52.711Z,2.42
2019-05-13T21:48:21.532Z,3.50
2019-05-13T21:50:47.985Z,2.58
2019-05-13T21:53:14.693Z,3.60
2019-05-13T21:55:41.502Z,4.05
2019-05-13T21:58:08.339Z,3.33
2019-05-13T22:00:37.030Z,3.37
2019-05-13T22:03:04.537Z,5.17
2019-05-13T22:05:31.651Z,3.52
2019-05-13T22:07:58.330Z,4.47
2019-05-13T22:10:24.930Z,3.72
2019-05-13T22:12:52.186Z,2.33
2019-05-13T22:15:21.701Z,3.87
2019-05-13T22:17:48.217Z,3.33
2019-05-13T22:20:16.077Z,3.72
2019-05-13T22:22:43.326Z,3.80
2019-05-13T22:25:12.159Z,5.80
2019-05-13T22:27:41.178Z,2.62
2019-05-13T22:30:08.059Z,3.60
2019-05-13T22:32:35.162Z,3.60
2019-05-13T22:35:02.021Z,4.47
2019-05-13T22:37:31.194Z,5.00
2019-05-13T22:39:57.620Z,4.35
2019-05-13T22:42:25.683Z,2.87
2019-05-13T22:44:52.448Z,3.45
2019-05-13T22:47:21.816Z,2.55
2019-05-13T22:49:47.924Z,3.27
2019-05-13T22:52:15.187Z,3.90
2019-05-13T22:54:42.127Z,4.42
2019-05-13T22:57:11.732Z,3.27
2019-05-13T22:59:37.839Z,2.45
2019-05-13T23:02:04.797Z,4.55
2019-05-13T23:04:32.129Z,3.42
2019-05-13T23:07:01.285Z,9.00
2019-05-13T23:09:28.330Z,6.28
2019-05-13T23:11:55.490Z,4.50
2019-05-13T23:14:22.266Z,4.87
2019-05-13T23:16:49.254Z,4.62
2019-05-13T23:19:15.943Z,4.72
2019-05-13T23:21:43.080Z,4.62
2019-05-13T23:24:11.349Z,6.12
2019-05-13T23:26:38.166Z,4.28
2019-05-13T23:29:18.271Z,4.72
2019-05-13T23:31:46.069Z,4.65
2019-05-13T23:34:12.808Z,3.60
2019-05-13T23:36:42.301Z,4.25
2019-05-13T23:39:11.670Z,4.22
2019-05-13T23:41:38.404Z,3.67
2019-05-13T23:44:05.299Z,3.42
2019-05-13T23:46:32.576Z,3.37
2019-05-13T23:49:01.226Z,3.42
2019-05-13T23:51:41.433Z,3.08
2019-05-13T23:54:08.861Z,4.08
2019-05-13T23:56:35.527Z,4.25
2019-05-13T23:59:04.269Z,2.47
